createdAt,value
2023-04-19T00:01:01.705Z,96278.59
2023-04-19T00:02:03.372Z,96281.69
2023-04-19T00:03:07.001Z,96276.38
2023-04-19T00:04:08.881Z,96279.13
2023-04-19T00:05:12.060Z,96279.97
2023-04-19T00:06:15.220Z,96280.81
2023-04-19T00:07:18.650Z,96279.00
2023-04-19T00:08:20.300Z,96285.19
2023-04-19T00:09:21.940Z,96279.09
2023-04-19T00:10:23.559Z,96275.72
2023-04-19T00:11:25.635Z,96275.00
2023-04-19T00:12:27.240Z,96278.13
2023-04-19T00:13:28.773Z,96276.94
2023-04-19T00:14:30.375Z,96275.78
2023-04-19T00:15:32.040Z,96276.13
2023-04-19T00:16:33.597Z,96276.06
2023-04-19T00:17:35.390Z,96278.41
2023-04-19T00:18:38.820Z,96273.44
2023-04-19T00:19:40.393Z,96279.19
2023-04-19T00:20:41.909Z,96276.06
2023-04-19T00:21:43.501Z,96274.50
2023-04-19T00:22:45.056Z,96274.22
2023-04-19T00:23:46.629Z,96273.13
2023-04-19T00:24:48.131Z,96265.78
2023-04-19T00:25:49.868Z,96271.47
2023-04-19T00:26:51.363Z,96266.78
2023-04-19T00:27:52.907Z,96259.78
2023-04-19T00:28:54.850Z,96265.94
2023-04-19T00:29:57.693Z,96265.91
2023-04-19T00:30:59.316Z,96262.78
2023-04-19T00:32:00.845Z,96262.88
2023-04-19T00:33:02.558Z,96262.00
2023-04-19T00:34:04.129Z,96258.91
2023-04-19T00:35:06.220Z,96263.84
2023-04-19T00:36:08.064Z,96264.03
2023-04-19T00:37:11.056Z,96259.06
2023-04-19T00:38:12.711Z,96258.91
2023-04-19T00:39:15.181Z,96265.84
2023-04-19T00:40:16.721Z,96262.88
2023-04-19T00:41:18.298Z,96262.53
2023-04-19T00:42:19.836Z,96269.81
2023-04-19T00:43:21.383Z,96264.28
2023-04-19T00:44:23.632Z,96272.72
2023-04-19T00:45:26.283Z,96266.19
2023-04-19T00:46:27.991Z,96269.75
2023-04-19T00:47:30.550Z,96266.69
2023-04-19T00:48:32.243Z,96267.97
2023-04-19T00:49:34.070Z,96267.69
2023-04-19T00:50:36.175Z,96269.69
2023-04-19T00:51:38.322Z,96266.22
2023-04-19T00:52:40.405Z,96264.16
2023-04-19T00:53:42.077Z,96266.00
2023-04-19T00:54:45.234Z,96263.59
2023-04-19T00:55:48.044Z,96262.47
2023-04-19T00:56:50.141Z,96268.28
2023-04-19T00:57:52.249Z,96263.00
2023-04-19T00:58:54.438Z,96258.41
2023-04-19T00:59:57.183Z,96267.25
2023-04-19T01:00:59.993Z,96263.44
2023-04-19T01:02:02.072Z,96262.72
2023-04-19T01:03:04.334Z,96266.56
2023-04-19T01:04:06.488Z,96263.44
2023-04-19T01:05:08.598Z,96263.78
2023-04-19T01:06:10.400Z,96267.69
2023-04-19T01:07:11.967Z,96266.56
2023-04-19T01:08:13.555Z,96262.38
2023-04-19T01:09:15.294Z,96262.88
2023-04-19T01:10:16.926Z,96258.34
2023-04-19T01:11:18.441Z,96266.84
2023-04-19T01:12:20.171Z,96263.03
2023-04-19T01:13:21.982Z,96258.44
2023-04-19T01:14:23.557Z,96265.72
2023-04-19T01:15:25.095Z,96267.97
2023-04-19T01:16:28.059Z,96263.81
2023-04-19T01:17:32.189Z,96267.00
2023-04-19T01:18:37.494Z,96261.97
2023-04-19T01:19:39.412Z,96264.88
2023-04-19T01:20:41.008Z,96258.78
2023-04-19T01:21:43.825Z,96264.31
2023-04-19T01:22:45.583Z,96265.34
2023-04-19T01:23:47.150Z,96266.41
2023-04-19T01:24:48.706Z,96261.47
2023-04-19T01:25:50.294Z,96253.13
2023-04-19T01:26:51.887Z,96256.31
2023-04-19T01:27:53.403Z,96264.06
2023-04-19T01:28:55.034Z,96259.53
2023-04-19T01:29:56.641Z,96261.44
2023-04-19T01:30:58.283Z,96260.25
2023-04-19T01:31:59.836Z,96259.53
2023-04-19T01:33:01.469Z,96255.00
2023-04-19T01:34:03.013Z,96261.44
2023-04-19T01:35:05.180Z,96264.03
2023-04-19T01:36:07.270Z,96264.72
2023-04-19T01:37:09.172Z,96266.28
2023-04-19T01:38:10.892Z,96261.34
2023-04-19T01:39:12.439Z,96262.53
2023-04-19T01:40:14.290Z,96265.56
2023-04-19T01:41:16.047Z,96262.38
2023-04-19T01:42:17.620Z,96266.22
2023-04-19T01:43:19.147Z,96265.22
2023-04-19T01:44:20.699Z,96264.00
2023-04-19T01:45:22.260Z,96256.66
2023-04-19T01:46:23.965Z,96259.84
2023-04-19T01:47:25.846Z,96262.19
2023-04-19T01:48:27.455Z,96265.16
2023-04-19T01:49:29.036Z,96257.50
2023-04-19T01:50:31.897Z,96266.78
2023-04-19T01:51:33.406Z,96265.34
2023-04-19T01:52:34.915Z,96267.41
2023-04-19T01:53:36.438Z,96260.19
2023-04-19T01:54:37.948Z,96261.03
2023-04-19T01:55:39.646Z,96265.34
2023-04-19T01:56:41.239Z,96258.13
2023-04-19T01:57:42.782Z,96262.44
2023-04-19T01:58:44.281Z,96264.81
2023-04-19T01:59:45.817Z,96262.56
2023-04-19T02:00:47.447Z,96262.28
2023-04-19T02:01:49.032Z,96256.94
2023-04-19T02:02:50.800Z,96266.19
2023-04-19T02:03:52.584Z,96266.56
2023-04-19T02:04:54.360Z,96261.41
2023-04-19T02:05:55.926Z,96266.03
2023-04-19T02:06:57.441Z,96259.16
2023-04-19T02:07:59.008Z,96259.63
2023-04-19T02:09:00.631Z,96261.59
2023-04-19T02:10:02.307Z,96263.22
2023-04-19T02:11:10.419Z,96263.34
2023-04-19T02:12:11.943Z,96264.91
2023-04-19T02:13:13.470Z,96259.03
2023-04-19T02:14:15.258Z,96265.56
2023-04-19T02:15:17.020Z,96258.25
2023-04-19T02:16:19.048Z,96264.84
2023-04-19T02:17:20.631Z,96272.53
2023-04-19T02:18:22.514Z,96261.78
2023-04-19T02:19:24.302Z,96261.75
2023-04-19T02:20:25.823Z,96270.75
2023-04-19T02:21:27.632Z,96265.25
2023-04-19T02:22:29.149Z,96263.56
2023-04-19T02:23:30.839Z,96262.13
2023-04-19T02:24:32.371Z,96258.38
2023-04-19T02:25:34.000Z,96256.13
2023-04-19T02:26:35.566Z,96263.75
2023-04-19T02:27:37.085Z,96255.19
2023-04-19T02:28:39.284Z,96258.13
2023-04-19T02:29:41.175Z,96260.03
2023-04-19T02:30:42.965Z,96255.38
2023-04-19T02:31:46.547Z,96253.38
2023-04-19T02:32:49.320Z,96254.88
2023-04-19T02:33:50.899Z,96256.25
2023-04-19T02:34:52.442Z,96247.03
2023-04-19T02:35:54.015Z,96257.09
2023-04-19T02:36:55.578Z,96253.69
2023-04-19T02:37:57.143Z,96251.72
2023-04-19T02:38:59.370Z,96258.50
2023-04-19T02:40:00.912Z,96254.97
2023-04-19T02:41:04.424Z,96260.75
2023-04-19T02:42:06.035Z,96254.69
2023-04-19T02:43:07.644Z,96254.75
2023-04-19T02:44:09.238Z,96251.63
2023-04-19T02:45:10.990Z,96257.66
2023-04-19T02:46:12.578Z,96253.75
2023-04-19T02:47:14.162Z,96257.22
2023-04-19T02:48:15.791Z,96256.09
2023-04-19T02:49:17.809Z,96258.06
2023-04-19T02:50:19.340Z,96255.47
2023-04-19T02:51:20.924Z,96259.63
2023-04-19T02:52:22.495Z,96258.34
2023-04-19T02:53:24.153Z,96255.53
2023-04-19T02:54:25.732Z,96252.84
2023-04-19T02:55:27.328Z,96254.81
2023-04-19T02:56:28.944Z,96254.81
2023-04-19T02:57:30.664Z,96253.97
2023-04-19T02:58:32.202Z,96250.22
2023-04-19T02:59:34.013Z,96253.09
2023-04-19T03:00:35.848Z,96257.00
2023-04-19T03:01:37.633Z,96257.63
2023-04-19T03:02:39.617Z,96252.53
2023-04-19T03:03:41.400Z,96254.53
2023-04-19T03:04:43.640Z,96255.03
2023-04-19T03:05:45.314Z,96250.13
2023-04-19T03:06:46.854Z,96257.91
2023-04-19T03:07:48.394Z,96252.72
2023-04-19T03:08:50.137Z,96249.75
2023-04-19T03:09:51.664Z,96249.75
2023-04-19T03:10:53.210Z,96253.53
2023-04-19T03:11:54.876Z,96252.00
2023-04-19T03:12:56.423Z,96240.50
2023-04-19T03:13:57.949Z,96251.31
2023-04-19T03:14:59.484Z,96246.72
2023-04-19T03:16:01.055Z,96248.19
2023-04-19T03:17:03.236Z,96248.47
2023-04-19T03:18:04.922Z,96252.72
2023-04-19T03:19:06.491Z,96248.13
2023-04-19T03:20:11.945Z,96251.78
2023-04-19T03:21:13.445Z,96242.50
2023-04-19T03:22:15.019Z,96250.13
2023-04-19T03:23:16.650Z,96251.69
2023-04-19T03:24:28.089Z,96248.16
2023-04-19T03:25:29.687Z,96250.00
2023-04-19T03:26:31.444Z,96242.22
2023-04-19T03:27:37.125Z,96249.84
2023-04-19T03:28:38.692Z,96246.09
2023-04-19T03:29:40.453Z,96246.09
2023-04-19T03:30:42.376Z,96246.03
2023-04-19T03:31:44.044Z,96246.66
2023-04-19T03:32:48.211Z,96255.06
2023-04-19T03:33:49.802Z,96251.09
2023-04-19T03:34:51.356Z,96247.28
2023-04-19T03:35:52.854Z,96247.38
2023-04-19T03:36:55.196Z,96245.09
2023-04-19T03:37:56.744Z,96242.50
2023-04-19T03:38:58.336Z,96252.53
2023-04-19T03:39:59.986Z,96246.88
2023-04-19T03:41:01.535Z,96248.44
2023-04-19T03:42:03.120Z,96248.44
2023-04-19T03:43:04.762Z,96252.25
2023-04-19T03:44:06.372Z,96259.09
2023-04-19T03:45:08.408Z,96254.41
2023-04-19T03:46:10.052Z,96248.81
2023-04-19T03:47:11.701Z,96252.50
2023-04-19T03:48:13.324Z,96247.13
2023-04-19T03:49:15.170Z,96258.84
2023-04-19T03:50:16.818Z,96258.94
2023-04-19T03:51:18.770Z,96267.94
2023-04-19T03:52:20.362Z,96254.28
2023-04-19T03:53:21.947Z,96253.66
2023-04-19T03:54:23.528Z,96258.41
2023-04-19T03:55:25.058Z,96263.06
2023-04-19T03:56:26.573Z,96259.53
2023-04-19T03:57:28.127Z,96252.19
2023-04-19T03:58:29.649Z,96258.34
2023-04-19T03:59:31.388Z,96262.50
2023-04-19T04:00:32.895Z,96261.28
2023-04-19T04:01:34.479Z,96257.56
2023-04-19T04:02:39.838Z,96257.28
2023-04-19T04:03:41.826Z,96255.47
2023-04-19T04:04:43.810Z,96260.25
2023-04-19T04:05:45.598Z,96271.25
2023-04-19T04:06:47.101Z,96263.19
2023-04-19T04:07:48.649Z,96266.72
2023-04-19T04:08:50.379Z,96259.97
2023-04-19T04:09:51.936Z,96264.63
2023-04-19T04:10:54.830Z,96263.94
2023-04-19T04:11:56.409Z,96264.63
2023-04-19T04:12:57.934Z,96266.22
2023-04-19T04:13:59.550Z,96260.88
2023-04-19T04:15:01.245Z,96270.22
2023-04-19T04:16:03.036Z,96263.88
2023-04-19T04:17:07.036Z,96268.97
2023-04-19T04:18:09.188Z,96268.28
2023-04-19T04:19:10.848Z,96265.78
2023-04-19T04:20:13.649Z,96258.53
2023-04-19T04:21:15.267Z,96267.47
2023-04-19T04:22:17.311Z,96266.59
2023-04-19T04:23:21.463Z,96264.88
2023-04-19T04:24:22.988Z,96264.69
2023-04-19T04:25:25.946Z,96262.19
2023-04-19T04:26:30.800Z,96261.06
2023-04-19T04:27:33.303Z,96263.88
2023-04-19T04:28:34.866Z,96271.66
2023-04-19T04:29:37.460Z,96274.19
2023-04-19T04:30:40.913Z,96266.19
2023-04-19T04:31:42.719Z,96271.28
2023-04-19T04:32:45.106Z,96266.63
2023-04-19T04:33:46.709Z,96266.03
2023-04-19T04:34:51.374Z,96262.06
2023-04-19T04:35:54.205Z,96268.03
2023-04-19T04:36:55.861Z,96256.31
2023-04-19T04:37:57.408Z,96265.03
2023-04-19T04:39:01.962Z,96264.31
2023-04-19T04:40:08.162Z,96267.56
2023-04-19T04:41:12.194Z,96264.03
2023-04-19T04:42:13.723Z,96265.84
2023-04-19T04:43:15.250Z,96267.56
2023-04-19T04:44:16.786Z,96267.69
2023-04-19T04:45:18.665Z,96264.78
2023-04-19T04:46:20.384Z,96258.75
2023-04-19T04:47:22.023Z,96268.47
2023-04-19T04:48:24.243Z,96268.97
2023-04-19T04:49:27.866Z,96271.72
2023-04-19T04:50:29.620Z,96263.72
2023-04-19T04:51:32.441Z,96265.28
2023-04-19T04:52:34.237Z,96267.44
2023-04-19T04:53:35.800Z,96267.53
2023-04-19T04:54:37.342Z,96269.25
2023-04-19T04:55:38.924Z,96261.50
2023-04-19T04:56:40.730Z,96264.38
2023-04-19T04:57:42.256Z,96257.59
2023-04-19T04:58:43.760Z,96261.53
2023-04-19T04:59:46.324Z,96266.28
2023-04-19T05:00:49.137Z,96266.03
2023-04-19T05:01:50.853Z,96266.88
2023-04-19T05:02:52.544Z,96266.53
2023-04-19T05:03:54.170Z,96274.25
2023-04-19T05:04:55.960Z,96265.88
2023-04-19T05:05:57.741Z,96262.75
2023-04-19T05:06:59.319Z,96275.06
2023-04-19T05:08:01.295Z,96268.56
2023-04-19T05:09:03.348Z,96265.03
2023-04-19T05:10:05.353Z,96266.66
2023-04-19T05:11:06.965Z,96268.25
2023-04-19T05:12:08.491Z,96270.56
2023-04-19T05:13:10.044Z,96270.22
2023-04-19T05:14:12.850Z,96266.03
2023-04-19T05:15:14.557Z,96267.56
2023-04-19T05:16:16.297Z,96263.41
2023-04-19T05:17:17.896Z,96269.09
2023-04-19T05:18:19.445Z,96269.81
2023-04-19T05:19:21.012Z,96271.34
2023-04-19T05:20:22.645Z,96275.28
2023-04-19T05:21:24.252Z,96278.41
2023-04-19T05:22:26.490Z,96278.41
2023-04-19T05:23:28.020Z,96267.34
2023-04-19T05:24:29.708Z,96276.97
2023-04-19T05:25:31.299Z,96271.66
2023-04-19T05:26:38.431Z,96272.44
2023-04-19T05:27:40.116Z,96275.50
2023-04-19T05:28:42.342Z,96275.16
2023-04-19T05:29:43.933Z,96276.78
2023-04-19T05:30:45.878Z,96274.47
2023-04-19T05:31:47.549Z,96271.47
2023-04-19T05:32:49.410Z,96275.75
2023-04-19T05:33:50.952Z,96269.72
2023-04-19T05:34:52.502Z,96270.88
2023-04-19T05:35:54.052Z,96275.47
2023-04-19T05:36:55.887Z,96270.09
2023-04-19T05:37:57.478Z,96275.81
2023-04-19T05:38:59.040Z,96274.16
2023-04-19T05:40:00.735Z,96273.00
2023-04-19T05:41:03.778Z,96277.25
2023-04-19T05:42:05.424Z,96272.59
2023-04-19T05:43:07.044Z,96273.69
2023-04-19T05:44:08.618Z,96276.31
2023-04-19T05:45:10.679Z,96273.25
2023-04-19T05:46:12.256Z,96277.19
2023-04-19T05:47:13.987Z,96277.28
2023-04-19T05:48:15.550Z,96278.94
2023-04-19T05:49:17.115Z,96277.09
2023-04-19T05:50:20.631Z,96277.13
2023-04-19T05:51:22.217Z,96278.69
2023-04-19T05:52:23.803Z,96279.16
2023-04-19T05:53:25.477Z,96271.91
2023-04-19T05:54:29.229Z,96277.59
2023-04-19T05:55:31.108Z,96275.22
2023-04-19T05:56:32.858Z,96276.00
2023-04-19T05:57:34.746Z,96277.63
2023-04-19T05:58:36.785Z,96283.97
2023-04-19T05:59:38.402Z,96282.41
2023-04-19T06:00:40.048Z,96282.41
2023-04-19T06:01:41.669Z,96275.88
2023-04-19T06:02:44.719Z,96275.09
2023-04-19T06:03:46.996Z,96272.41
2023-04-19T06:04:49.605Z,96279.78
2023-04-19T06:05:51.388Z,96273.22
2023-04-19T06:06:53.496Z,96270.97
2023-04-19T06:08:02.559Z,96269.84
2023-04-19T06:09:04.831Z,96265.28
2023-04-19T06:10:07.261Z,96268.41
2023-04-19T06:11:20.277Z,96269.22
2023-04-19T06:12:28.398Z,96266.53
2023-04-19T06:13:29.999Z,96266.53
2023-04-19T06:14:31.611Z,96265.03
2023-04-19T06:15:33.234Z,96263.53
2023-04-19T06:16:34.821Z,96262.75
2023-04-19T06:17:36.448Z,96262.81
2023-04-19T06:18:38.030Z,96267.41
2023-04-19T06:19:39.616Z,96263.13
2023-04-19T06:20:41.275Z,96266.53
2023-04-19T06:21:43.089Z,96260.38
2023-04-19T06:22:48.873Z,96265.41
2023-04-19T06:23:50.504Z,96265.81
2023-04-19T06:24:52.070Z,96265.88
2023-04-19T06:25:53.632Z,96269.53
2023-04-19T06:26:55.184Z,96267.72
2023-04-19T06:27:56.785Z,96266.69
2023-04-19T06:28:58.397Z,96266.16
2023-04-19T06:30:01.035Z,96267.88
2023-04-19T06:31:02.886Z,96270.72
2023-04-19T06:32:04.782Z,96265.06
2023-04-19T06:33:06.536Z,96262.38
2023-04-19T06:34:08.113Z,96263.59
2023-04-19T06:35:09.946Z,96268.66
2023-04-19T06:36:11.574Z,96264.13
2023-04-19T06:37:13.208Z,96265.78
2023-04-19T06:38:14.774Z,96266.63
2023-04-19T06:39:17.913Z,96266.31
2023-04-19T06:40:19.558Z,96265.25
2023-04-19T06:41:21.114Z,96269.22
2023-04-19T06:42:23.561Z,96265.81
2023-04-19T06:43:25.770Z,96270.84
2023-04-19T06:44:27.938Z,96263.78
2023-04-19T06:45:29.909Z,96269.38
2023-04-19T06:46:31.782Z,96260.59
2023-04-19T06:47:37.051Z,96263.81
2023-04-19T06:48:38.824Z,96268.50
2023-04-19T06:49:40.363Z,96273.97
2023-04-19T06:50:41.953Z,96265.84
2023-04-19T06:51:43.585Z,96267.81
2023-04-19T06:52:45.147Z,96268.59
2023-04-19T06:53:46.736Z,96270.16
2023-04-19T06:54:49.400Z,96267.03
2023-04-19T06:55:57.829Z,96260.84
2023-04-19T06:56:59.345Z,96263.16
2023-04-19T06:58:01.013Z,96263.88
2023-04-19T06:59:02.727Z,96264.81
2023-04-19T07:00:06.985Z,96265.09
2023-04-19T07:01:08.720Z,96256.56
2023-04-19T07:02:10.567Z,96263.81
2023-04-19T07:03:12.304Z,96255.78
2023-04-19T07:04:14.887Z,96261.97
2023-04-19T07:05:17.173Z,96265.09
2023-04-19T07:06:18.679Z,96253.44
2023-04-19T07:07:20.248Z,96263.50
2023-04-19T07:08:23.470Z,96264.16
2023-04-19T07:09:25.222Z,96267.91
2023-04-19T07:10:26.942Z,96267.53
2023-04-19T07:11:28.603Z,96266.22
2023-04-19T07:12:30.152Z,96269.31
2023-04-19T07:13:31.782Z,96273.59
2023-04-19T07:14:33.732Z,96269.03
2023-04-19T07:15:35.558Z,96269.34
2023-04-19T07:16:37.504Z,96273.00
2023-04-19T07:17:39.162Z,96265.38
2023-04-19T07:18:41.264Z,96263.69
2023-04-19T07:19:47.654Z,96267.91
2023-04-19T07:20:49.592Z,96256.38
2023-04-19T07:21:51.378Z,96259.53
2023-04-19T07:22:52.931Z,96261.16
2023-04-19T07:23:54.512Z,96260.53
2023-04-19T07:24:56.126Z,96265.66
2023-04-19T07:25:57.682Z,96260.59
2023-04-19T07:26:59.356Z,96254.44
2023-04-19T07:28:00.923Z,96263.00
2023-04-19T07:29:03.246Z,96256.88
2023-04-19T07:30:05.300Z,96259.28
2023-04-19T07:31:06.888Z,96259.34
2023-04-19T07:32:08.760Z,96260.13
2023-04-19T07:33:10.998Z,96263.19
2023-04-19T07:34:12.620Z,96260.22
2023-04-19T07:35:14.206Z,96259.84
2023-04-19T07:36:15.846Z,96263.28
2023-04-19T07:37:17.591Z,96259.47
2023-04-19T07:38:19.308Z,96260.22
2023-04-19T07:39:20.904Z,96252.31
2023-04-19T07:40:22.495Z,96260.72
2023-04-19T07:41:24.023Z,96259.13
2023-04-19T07:42:26.017Z,96256.75
2023-04-19T07:43:30.313Z,96254.41
2023-04-19T07:44:32.393Z,96256.81
2023-04-19T07:45:34.138Z,96250.53
2023-04-19T07:46:35.781Z,96262.84
2023-04-19T07:47:37.492Z,96258.28
2023-04-19T07:48:39.170Z,96256.91
2023-04-19T07:49:40.772Z,96256.22
2023-04-19T07:50:42.298Z,96261.31
2023-04-19T07:51:43.873Z,96249.50
2023-04-19T07:52:45.510Z,96254.13
2023-04-19T07:53:47.683Z,96256.13
2023-04-19T07:54:49.294Z,96256.53
2023-04-19T07:55:51.206Z,96255.41
2023-04-19T07:56:52.860Z,96260.94
2023-04-19T07:57:54.490Z,96256.84
2023-04-19T07:59:06.725Z,96259.97
2023-04-19T08:00:10.508Z,96249.97
2023-04-19T08:01:12.240Z,96251.50
2023-04-19T08:02:14.088Z,96259.28
2023-04-19T08:03:16.068Z,96246.97
2023-04-19T08:04:20.227Z,96246.97
2023-04-19T08:05:23.490Z,96250.78
2023-04-19T08:06:26.999Z,96249.63
2023-04-19T08:07:28.639Z,96255.34
2023-04-19T08:08:30.831Z,96249.13
2023-04-19T08:09:34.436Z,96251.19
2023-04-19T08:10:36.043Z,96246.59
2023-04-19T08:11:37.575Z,96245.41
2023-04-19T08:12:47.339Z,96243.84
2023-04-19T08:14:26.023Z,96246.19
2023-04-19T08:15:38.126Z,96242.41
2023-04-19T08:17:19.555Z,96248.97
2023-04-19T08:18:05.163Z,96251.66
2023-04-19T08:19:06.976Z,96243.53
2023-04-19T08:20:11.051Z,96243.53
2023-04-19T08:21:12.574Z,96239.69
2023-04-19T08:22:14.139Z,96245.16
2023-04-19T08:23:23.948Z,96233.63
2023-04-19T08:24:30.360Z,96230.13
2023-04-19T08:25:32.324Z,96235.09
2023-04-19T08:26:33.871Z,96223.09
2023-04-19T08:27:35.870Z,96228.53
2023-04-19T08:28:37.459Z,96220.84
2023-04-19T08:29:39.851Z,96220.44
2023-04-19T08:30:41.463Z,96223.13
2023-04-19T08:31:44.517Z,96224.63
2023-04-19T08:32:46.433Z,96221.91
2023-04-19T08:33:48.225Z,96220.84
2023-04-19T08:34:50.016Z,96226.63
2023-04-19T08:35:51.655Z,96217.75
2023-04-19T08:37:03.607Z,96218.53
2023-04-19T08:38:05.793Z,96223.16
2023-04-19T08:39:14.809Z,96207.72
2023-04-19T08:40:31.603Z,96205.34
2023-04-19T08:41:33.171Z,96209.56
2023-04-19T08:42:36.795Z,96213.78
2023-04-19T08:43:41.734Z,96210.69
2023-04-19T08:44:59.694Z,96213.78
2023-04-19T08:46:07.920Z,96201.31
2023-04-19T08:47:15.228Z,96202.13
2023-04-19T08:48:23.795Z,96207.66
2023-04-19T08:49:26.057Z,96199.91
2023-04-19T08:50:35.412Z,96202.94
2023-04-19T08:51:43.304Z,96195.94
2023-04-19T08:52:54.929Z,96200.47
2023-04-19T08:54:01.120Z,96200.41
2023-04-19T08:55:08.449Z,96195.25
2023-04-19T08:56:18.090Z,96192.47
2023-04-19T08:57:32.163Z,96192.41
2023-04-19T08:59:39.379Z,96199.25
2023-04-19T09:00:41.485Z,96187.53
2023-04-19T09:01:44.766Z,96187.16
2023-04-19T09:02:51.487Z,96191.94
2023-04-19T09:04:06.706Z,96196.19
2023-04-19T09:05:13.828Z,96188.50
2023-04-19T09:06:15.956Z,96190.91
2023-04-19T09:07:27.850Z,96188.56
2023-04-19T09:08:32.659Z,96187.03
2023-04-19T09:09:41.047Z,96186.72
2023-04-19T09:10:59.318Z,96187.97
2023-04-19T09:12:00.866Z,96180.63
2023-04-19T09:13:04.584Z,96181.03
2023-04-19T09:14:11.190Z,96177.38
2023-04-19T09:15:12.788Z,96182.28
2023-04-19T09:16:25.221Z,96176.00
2023-04-19T09:17:27.004Z,96180.22
2023-04-19T09:18:31.416Z,96175.13
2023-04-19T09:19:54.966Z,96182.84
2023-04-19T09:21:00.423Z,96176.63
2023-04-19T09:22:13.445Z,96170.41
2023-04-19T09:23:18.750Z,96174.25
2023-04-19T09:25:04.340Z,96171.94
2023-04-19T09:26:22.191Z,96161.19
2023-04-19T09:27:33.938Z,96158.69
2023-04-19T09:28:35.529Z,96160.38
2023-04-19T09:29:37.093Z,96162.06
2023-04-19T09:30:46.916Z,96157.75
2023-04-19T09:32:00.080Z,96155.81
2023-04-19T09:33:01.890Z,96157.34
2023-04-19T09:34:14.739Z,96159.69
2023-04-19T09:35:16.725Z,96160.56
2023-04-19T09:36:31.904Z,96160.59
2023-04-19T09:38:01.368Z,96156.75
2023-04-19T09:38:55.162Z,96152.81
2023-04-19T09:39:57.046Z,96165.16
2023-04-19T09:41:08.919Z,96158.06
2023-04-19T09:42:10.462Z,96158.69
2023-04-19T09:43:45.285Z,96153.25
2023-04-19T09:45:12.544Z,96154.75
2023-04-19T09:45:56.657Z,96149.03
2023-04-19T09:46:58.261Z,96147.47
2023-04-19T09:48:05.200Z,96152.09
2023-04-19T09:49:41.620Z,96150.53
2023-04-19T09:51:02.536Z,96147.41
2023-04-19T09:52:07.399Z,96140.88
2023-04-19T09:53:10.811Z,96135.88
2023-04-19T09:54:13.874Z,96135.50
2023-04-19T09:55:26.850Z,96136.38
2023-04-19T09:56:30.634Z,96130.78
2023-04-19T09:57:33.717Z,96131.88
2023-04-19T09:58:48.996Z,96134.91
2023-04-19T09:59:52.578Z,96130.66
2023-04-19T10:01:06.570Z,96122.06
2023-04-19T10:02:14.924Z,96132.25
2023-04-19T10:03:17.953Z,96135.00
2023-04-19T10:04:32.679Z,96130.63
2023-04-19T10:05:41.541Z,96126.09
2023-04-19T10:07:07.001Z,96121.09
2023-04-19T10:08:07.993Z,96133.84
2023-04-19T10:09:10.820Z,96121.53
2023-04-19T10:10:20.437Z,96130.13
2023-04-19T10:11:26.889Z,96125.56
2023-04-19T10:12:58.466Z,96125.63
2023-04-19T10:13:59.944Z,96134.53
2023-04-19T10:15:01.635Z,96124.09
2023-04-19T10:16:15.543Z,96121.81
2023-04-19T10:17:21.022Z,96126.44
2023-04-19T10:18:23.256Z,96128.72
2023-04-19T10:19:25.696Z,96114.84
2023-04-19T10:20:42.158Z,96117.16
2023-04-19T10:21:46.539Z,96122.97
2023-04-19T10:22:48.740Z,96114.06
2023-04-19T10:23:50.695Z,96125.69
2023-04-19T10:25:17.674Z,96134.59
2023-04-19T10:26:19.499Z,96130.34
2023-04-19T10:27:25.765Z,96131.13
2023-04-19T10:28:34.186Z,96124.53
2023-04-19T10:29:55.697Z,96124.53
2023-04-19T10:31:02.643Z,96128.81
2023-04-19T10:32:06.222Z,96123.34
2023-04-19T10:33:07.997Z,96129.16
2023-04-19T10:34:12.698Z,96127.28
2023-04-19T10:35:24.710Z,96121.03
2023-04-19T10:36:27.725Z,96117.19
2023-04-19T10:37:31.813Z,96121.06
2023-04-19T10:38:37.629Z,96116.44
2023-04-19T10:39:45.805Z,96122.59
2023-04-19T10:41:01.679Z,96107.91
2023-04-19T10:42:03.320Z,96102.47
2023-04-19T10:43:10.676Z,96108.69
2023-04-19T10:44:12.354Z,96104.78
2023-04-19T10:45:35.997Z,96111.75
2023-04-19T10:46:41.989Z,96102.47
2023-04-19T10:47:46.592Z,96113.25
2023-04-19T10:48:57.123Z,96098.50
2023-04-19T10:49:58.734Z,96103.13
2023-04-19T10:51:16.041Z,96107.78
2023-04-19T10:52:29.567Z,96100.75
2023-04-19T10:54:00.844Z,96097.97
2023-04-19T10:55:06.054Z,96093.72
2023-04-19T10:56:07.644Z,96090.59
2023-04-19T10:57:11.259Z,96103.41
2023-04-19T10:58:13.134Z,96106.09
2023-04-19T10:59:21.516Z,96101.88
2023-04-19T11:00:25.750Z,96103.44
2023-04-19T11:01:46.269Z,96099.19
2023-04-19T11:02:47.981Z,96100.69
2023-04-19T11:03:49.692Z,96103.03
2023-04-19T11:04:51.242Z,96093.75
2023-04-19T11:06:23.051Z,96093.75
2023-04-19T11:07:25.001Z,96107.72
2023-04-19T11:08:26.826Z,96108.13
2023-04-19T11:09:30.817Z,96100.75
2023-04-19T11:10:32.384Z,96107.31
2023-04-19T11:11:37.392Z,96105.34
2023-04-19T11:12:43.278Z,96106.03
2023-04-19T11:13:47.242Z,96103.31
2023-04-19T11:15:00.153Z,96106.38
2023-04-19T11:16:08.369Z,96098.22
2023-04-19T11:17:19.098Z,96105.94
2023-04-19T11:18:20.728Z,96110.53
2023-04-19T11:19:22.361Z,96108.63
2023-04-19T11:20:24.519Z,96084.34
2023-04-19T11:21:29.913Z,96106.09
2023-04-19T11:22:35.447Z,96108.84
2023-04-19T11:23:36.966Z,96106.19
2023-04-19T11:24:38.525Z,96115.50
2023-04-19T11:25:40.202Z,96111.56
2023-04-19T11:26:46.134Z,96103.41
2023-04-19T11:27:50.002Z,96113.88
2023-04-19T11:28:53.111Z,96117.78
2023-04-19T11:30:03.281Z,96122.47
2023-04-19T11:31:05.500Z,96121.31
2023-04-19T11:32:07.585Z,96127.91
2023-04-19T11:33:12.581Z,96126.38
2023-04-19T11:34:14.437Z,96131.06
2023-04-19T11:35:20.733Z,96134.16
2023-04-19T11:36:22.369Z,96136.16
2023-04-19T11:37:24.012Z,96128.00
2023-04-19T11:38:28.338Z,96138.84
2023-04-19T11:39:30.228Z,96140.81
2023-04-19T11:40:32.174Z,96145.81
2023-04-19T11:41:39.832Z,96135.75
2023-04-19T11:42:41.490Z,96148.88
2023-04-19T11:43:45.309Z,96146.56
2023-04-19T11:44:51.767Z,96152.72
2023-04-19T11:45:54.262Z,96161.59
2023-04-19T11:47:05.194Z,96153.44
2023-04-19T11:48:10.035Z,96167.69
2023-04-19T11:49:25.764Z,96162.22
2023-04-19T11:50:46.034Z,96169.84
2023-04-19T11:51:47.589Z,96162.88
2023-04-19T11:52:49.572Z,96170.91
2023-04-19T11:53:51.134Z,96162.38
2023-04-19T11:54:53.769Z,96169.72
2023-04-19T11:56:08.582Z,96171.28
2023-04-19T11:57:10.118Z,96172.41
2023-04-19T11:58:33.484Z,96168.88
2023-04-19T11:59:36.454Z,96166.53
2023-04-19T12:00:38.210Z,96169.19
2023-04-19T12:01:41.393Z,96167.66
2023-04-19T12:02:44.838Z,96169.94
2023-04-19T12:03:49.752Z,96164.97
2023-04-19T12:04:52.124Z,96163.81
2023-04-19T12:06:17.881Z,96168.44
2023-04-19T12:07:19.416Z,96170.78
2023-04-19T12:08:32.095Z,96166.97
2023-04-19T12:09:37.033Z,96160.84
2023-04-19T12:10:38.600Z,96160.91
2023-04-19T12:11:49.922Z,96157.84
2023-04-19T12:12:51.508Z,96155.56
2023-04-19T12:14:10.654Z,96147.91
2023-04-19T12:15:12.252Z,96156.06
2023-04-19T12:16:14.162Z,96159.19
2023-04-19T12:17:15.921Z,96154.56
2023-04-19T12:18:17.600Z,96166.56
2023-04-19T12:19:20.436Z,96158.06
2023-04-19T12:20:33.048Z,96161.56
2023-04-19T12:21:34.558Z,96163.50
2023-04-19T12:22:36.239Z,96160.81
2023-04-19T12:23:37.842Z,96165.06
2023-04-19T12:24:40.862Z,96160.84
2023-04-19T12:25:44.652Z,96168.16
2023-04-19T12:26:57.379Z,96164.69
2023-04-19T12:28:01.105Z,96171.66
2023-04-19T12:29:03.695Z,96173.56
2023-04-19T12:30:05.936Z,96177.41
2023-04-19T12:31:07.541Z,96173.53